createdAt,value
2018-07-09T00:00:42.217Z,0.00
2018-07-09T00:01:42.176Z,0.00
2018-07-09T00:02:42.224Z,0.00
2018-07-09T00:03:42.124Z,0.00
2018-07-09T00:04:42.096Z,0.00
2018-07-09T00:05:42.044Z,0.00
2018-07-09T00:06:42.006Z,0.00
2018-07-09T00:07:41.990Z,0.00
2018-07-09T00:08:41.946Z,0.00
2018-07-09T00:09:41.910Z,0.00
2018-07-09T00:10:41.879Z,0.00
2018-07-09T00:11:41.853Z,0.00
2018-07-09T00:12:41.795Z,0.00
2018-07-09T00:13:41.761Z,0.00
2018-07-09T00:14:41.733Z,0.00
2018-07-09T00:15:41.693Z,0.00
2018-07-09T00:16:41.660Z,0.00
2018-07-09T00:17:41.617Z,0.00
2018-07-09T00:18:41.593Z,0.00
2018-07-09T00:19:41.558Z,0.00
2018-07-09T00:20:41.526Z,0.00
2018-07-09T00:21:41.484Z,0.00
2018-07-09T00:22:41.470Z,0.00
2018-07-09T00:23:41.443Z,0.00
2018-07-09T00:24:41.388Z,0.00
2018-07-09T00:25:41.346Z,0.00
2018-07-09T00:26:41.339Z,0.00
2018-07-09T00:27:41.291Z,0.00
2018-07-09T00:28:41.268Z,0.00
2018-07-09T00:29:41.204Z,0.00
2018-07-09T00:30:41.178Z,0.00
2018-07-09T00:31:41.136Z,0.00
2018-07-09T00:32:41.103Z,0.00
2018-07-09T00:33:41.066Z,0.00
2018-07-09T00:34:41.025Z,0.00
2018-07-09T00:35:40.991Z,0.00
2018-07-09T00:36:40.956Z,0.00
2018-07-09T00:37:40.921Z,0.00
2018-07-09T00:38:40.885Z,0.00
2018-07-09T00:39:40.851Z,0.00
2018-07-09T00:40:40.825Z,0.00
2018-07-09T00:41:40.784Z,0.00
2018-07-09T00:42:40.750Z,0.00
2018-07-09T00:43:40.712Z,0.00
2018-07-09T00:44:40.680Z,0.00
2018-07-09T00:45:40.644Z,0.00
2018-07-09T00:46:40.609Z,0.00
2018-07-09T00:47:40.566Z,0.00
2018-07-09T00:48:40.561Z,0.00
2018-07-09T00:49:40.497Z,0.00
2018-07-09T00:50:40.461Z,0.00
2018-07-09T00:51:40.428Z,0.00
2018-07-09T00:52:40.391Z,0.00
2018-07-09T00:53:40.352Z,0.00
2018-07-09T00:54:40.325Z,0.00
2018-07-09T00:55:40.272Z,0.00
2018-07-09T00:56:40.315Z,0.00
2018-07-09T00:57:40.213Z,0.00
2018-07-09T00:58:40.198Z,0.00
2018-07-09T00:59:40.149Z,0.00
2018-07-09T01:00:40.100Z,0.00
2018-07-09T01:01:40.058Z,0.00
2018-07-09T01:02:40.050Z,0.00
2018-07-09T01:03:40.000Z,0.00
2018-07-09T01:04:39.967Z,0.00
2018-07-09T01:05:39.980Z,0.00
2018-07-09T01:06:39.902Z,0.00
2018-07-09T01:07:39.856Z,0.00
2018-07-09T01:08:39.814Z,0.00
2018-07-09T01:09:39.791Z,0.00
2018-07-09T01:10:39.739Z,0.00
2018-07-09T01:11:39.707Z,0.00
2018-07-09T01:12:39.674Z,0.00
2018-07-09T01:13:39.643Z,0.00
2018-07-09T01:14:39.602Z,0.00
2018-07-09T01:15:39.582Z,0.00
2018-07-09T01:16:39.532Z,0.00
2018-07-09T01:17:39.486Z,0.00
2018-07-09T01:18:39.449Z,0.00
2018-07-09T01:19:39.409Z,0.00
2018-07-09T01:20:39.376Z,0.00
2018-07-09T01:21:39.355Z,0.00
2018-07-09T01:22:39.320Z,0.00
2018-07-09T01:23:39.278Z,0.00
2018-07-09T01:24:39.240Z,0.00
2018-07-09T01:25:39.206Z,0.00
2018-07-09T01:26:39.292Z,0.00
2018-07-09T01:27:39.145Z,0.00
2018-07-09T01:28:41.062Z,0.00
2018-07-09T01:29:39.077Z,0.00
2018-07-09T01:30:39.030Z,0.00
2018-07-09T01:31:38.997Z,0.00
2018-07-09T01:32:38.953Z,0.00
2018-07-09T01:33:38.914Z,0.00
2018-07-09T01:34:38.881Z,0.00
2018-07-09T01:35:38.840Z,0.00
2018-07-09T01:36:38.816Z,0.00
2018-07-09T01:37:38.778Z,0.00
2018-07-09T01:38:38.737Z,0.00
2018-07-09T01:39:38.703Z,0.00
2018-07-09T01:40:38.663Z,0.00
2018-07-09T01:41:38.622Z,0.00
2018-07-09T01:42:38.592Z,0.00
2018-07-09T01:43:38.551Z,0.00
2018-07-09T01:44:38.515Z,0.00
2018-07-09T01:45:38.488Z,0.00
2018-07-09T01:46:38.454Z,0.00
2018-07-09T01:47:38.407Z,0.00
2018-07-09T01:48:38.370Z,0.00
2018-07-09T01:49:38.332Z,0.00
2018-07-09T01:50:38.294Z,0.00
2018-07-09T01:51:38.284Z,0.00
2018-07-09T01:52:38.215Z,0.00
2018-07-09T01:53:38.201Z,0.00
2018-07-09T01:54:38.153Z,0.00
2018-07-09T01:55:38.168Z,0.00
2018-07-09T01:56:38.080Z,0.00
2018-07-09T01:57:38.065Z,0.00
2018-07-09T01:58:38.000Z,0.00
2018-07-09T01:59:37.973Z,0.00
2018-07-09T02:00:37.949Z,0.00
2018-07-09T02:01:37.888Z,0.00
2018-07-09T02:02:37.866Z,0.00
2018-07-09T02:03:37.844Z,0.00
2018-07-09T02:04:37.810Z,0.00
2018-07-09T02:05:37.752Z,0.00
2018-07-09T02:06:37.720Z,0.00
2018-07-09T02:07:37.671Z,0.00
2018-07-09T02:08:37.648Z,0.00
2018-07-09T02:09:37.599Z,0.00
2018-07-09T02:10:37.571Z,0.00
2018-07-09T02:11:37.554Z,0.00
2018-07-09T02:12:37.512Z,0.00
2018-07-09T02:13:37.480Z,0.00
2018-07-09T02:14:37.431Z,0.00
2018-07-09T02:15:37.387Z,0.00
2018-07-09T02:16:37.348Z,0.00
2018-07-09T02:17:37.311Z,0.00
2018-07-09T02:18:37.272Z,0.00
2018-07-09T02:19:37.229Z,0.00
2018-07-09T02:20:37.251Z,0.00
2018-07-09T02:21:37.159Z,0.00
2018-07-09T02:22:37.142Z,0.00
2018-07-09T02:23:37.087Z,0.00
2018-07-09T02:24:37.053Z,0.00
2018-07-09T02:25:37.017Z,0.00
2018-07-09T02:26:36.978Z,0.00
2018-07-09T02:27:36.939Z,0.00
2018-07-09T02:28:36.917Z,0.00
2018-07-09T02:29:36.878Z,0.00
2018-07-09T02:30:36.835Z,0.00
2018-07-09T02:31:36.796Z,0.00
2018-07-09T02:32:36.756Z,0.00
2018-07-09T02:33:36.740Z,0.00
2018-07-09T02:34:36.682Z,0.00
2018-07-09T02:35:36.660Z,0.00
2018-07-09T02:36:36.620Z,0.00
2018-07-09T02:37:36.576Z,0.00
2018-07-09T02:38:36.559Z,0.00
2018-07-09T02:39:36.533Z,0.00
2018-07-09T02:40:36.467Z,0.00
2018-07-09T02:41:36.437Z,0.00
2018-07-09T02:42:36.395Z,0.00
2018-07-09T02:43:36.386Z,0.00
2018-07-09T02:44:36.317Z,0.00
2018-07-09T02:45:36.285Z,0.00
2018-07-09T02:46:36.352Z,0.00
2018-07-09T02:47:36.213Z,0.00
2018-07-09T02:48:36.181Z,0.00
2018-07-09T02:49:36.140Z,0.00
2018-07-09T02:50:36.114Z,0.00
2018-07-09T02:51:36.083Z,0.00
2018-07-09T02:52:36.029Z,0.00
2018-07-09T02:53:36.002Z,5.63
2018-07-09T02:54:35.965Z,5.63
2018-07-09T02:55:35.936Z,5.63
2018-07-09T02:56:35.885Z,5.63
2018-07-09T02:57:35.850Z,5.63
2018-07-09T02:58:35.814Z,5.63
2018-07-09T02:59:35.782Z,5.63
2018-07-09T03:00:35.743Z,11.25
2018-07-09T03:01:35.697Z,11.25
2018-07-09T03:02:35.667Z,11.25
2018-07-09T03:03:35.619Z,11.25
2018-07-09T03:04:35.594Z,16.88
2018-07-09T03:05:35.567Z,16.88
2018-07-09T03:06:35.533Z,16.88
2018-07-09T03:07:35.482Z,16.88
2018-07-09T03:08:35.452Z,22.50
2018-07-09T03:09:35.414Z,22.50
2018-07-09T03:10:35.374Z,22.50
2018-07-09T03:11:35.335Z,28.13
2018-07-09T03:12:35.307Z,28.13
2018-07-09T03:13:35.272Z,28.13
2018-07-09T03:14:35.239Z,33.75
2018-07-09T03:15:35.189Z,33.75
2018-07-09T03:16:35.158Z,33.75
2018-07-09T03:17:35.123Z,39.38
2018-07-09T03:18:35.085Z,39.38
2018-07-09T03:19:35.038Z,45.00
2018-07-09T03:20:35.005Z,45.00
2018-07-09T03:21:34.985Z,50.63
2018-07-09T03:22:34.933Z,50.63
2018-07-09T03:23:34.893Z,56.25
2018-07-09T03:24:34.884Z,56.25
2018-07-09T03:25:34.834Z,61.88
2018-07-09T03:26:34.797Z,67.50
2018-07-09T03:27:34.748Z,67.50
2018-07-09T03:28:34.710Z,73.13
2018-07-09T03:29:34.692Z,73.13
2018-07-09T03:30:34.634Z,78.75
2018-07-09T03:31:34.595Z,84.38
2018-07-09T03:32:34.572Z,90.00
2018-07-09T03:33:34.546Z,90.00
2018-07-09T03:34:34.520Z,95.63
2018-07-09T03:35:34.481Z,101.25
2018-07-09T03:36:34.415Z,101.25
2018-07-09T03:37:34.382Z,106.88
2018-07-09T03:38:34.366Z,112.50
2018-07-09T03:39:34.304Z,118.13
2018-07-09T03:40:34.264Z,123.75
2018-07-09T03:41:34.228Z,118.13
2018-07-09T03:42:34.200Z,123.75
2018-07-09T03:43:34.165Z,129.38
2018-07-09T03:44:34.132Z,135.00
2018-07-09T03:45:34.108Z,140.63
2018-07-09T03:46:34.084Z,146.25
2018-07-09T03:47:34.016Z,151.88
2018-07-09T03:48:33.981Z,157.50
2018-07-09T03:49:33.950Z,163.13
2018-07-09T03:50:33.921Z,168.75
2018-07-09T03:51:33.881Z,168.75
2018-07-09T03:52:33.842Z,174.38
2018-07-09T03:53:33.806Z,180.00
2018-07-09T03:54:33.805Z,180.00
2018-07-09T03:55:33.726Z,185.63
2018-07-09T03:56:33.690Z,185.63
2018-07-09T03:57:33.673Z,191.25
2018-07-09T03:58:33.630Z,196.88
2018-07-09T03:59:33.585Z,196.88
2018-07-09T04:00:33.548Z,202.50
2018-07-09T04:01:33.521Z,208.13
2018-07-09T04:02:33.476Z,208.13
2018-07-09T04:03:33.428Z,213.75
2018-07-09T04:04:33.416Z,219.38
2018-07-09T04:05:33.355Z,230.63
2018-07-09T04:06:33.401Z,230.63
2018-07-09T04:07:33.272Z,230.63
2018-07-09T04:08:33.265Z,236.25
2018-07-09T04:09:33.210Z,236.25
2018-07-09T04:10:33.181Z,247.50
2018-07-09T04:11:33.144Z,241.88
2018-07-09T04:12:33.219Z,247.50
2018-07-09T04:13:33.062Z,241.88
2018-07-09T04:14:33.045Z,241.88
2018-07-09T04:15:32.986Z,241.88
2018-07-09T04:16:32.975Z,241.88
2018-07-09T04:17:32.929Z,247.50
2018-07-09T04:18:32.897Z,247.50
2018-07-09T04:19:32.838Z,247.50
2018-07-09T04:20:32.797Z,253.13
2018-07-09T04:21:32.782Z,253.13
2018-07-09T04:22:32.727Z,253.13
2018-07-09T04:23:32.702Z,253.13
2018-07-09T04:24:32.649Z,253.13
2018-07-09T04:25:32.631Z,253.13
2018-07-09T04:26:32.723Z,258.75
2018-07-09T04:27:32.575Z,264.38
2018-07-09T04:28:32.519Z,270.00
2018-07-09T04:29:32.483Z,281.25
2018-07-09T04:30:32.442Z,292.50
2018-07-09T04:31:32.409Z,303.75
2018-07-09T04:32:32.392Z,331.88
2018-07-09T04:33:32.341Z,337.50
2018-07-09T04:34:32.305Z,360.00
2018-07-09T04:35:32.267Z,382.50
2018-07-09T04:36:32.261Z,393.75
2018-07-09T04:37:32.199Z,405.00
2018-07-09T04:38:32.172Z,433.13
2018-07-09T04:39:32.148Z,461.25
2018-07-09T04:40:32.098Z,466.88
2018-07-09T04:41:32.045Z,483.75
2018-07-09T04:42:32.017Z,528.75
2018-07-09T04:43:31.974Z,641.25
2018-07-09T04:44:31.943Z,506.25
2018-07-09T04:45:31.914Z,495.00
2018-07-09T04:46:31.875Z,534.38
2018-07-09T04:47:31.840Z,495.00
2018-07-09T04:48:31.806Z,686.25
2018-07-09T04:49:31.761Z,731.25
2018-07-09T04:50:31.735Z,781.88
2018-07-09T04:51:31.710Z,787.50
2018-07-09T04:52:31.660Z,798.75
2018-07-09T04:53:31.648Z,798.75
2018-07-09T04:54:31.615Z,821.25
2018-07-09T04:55:31.569Z,815.63
2018-07-09T04:56:31.521Z,860.63
2018-07-09T04:57:31.497Z,888.75
2018-07-09T04:58:31.464Z,860.63
2018-07-09T04:59:31.442Z,793.13
2018-07-09T05:00:31.406Z,770.63
2018-07-09T05:01:31.414Z,753.75
2018-07-09T05:02:31.413Z,883.13
2018-07-09T05:03:31.298Z,821.25
2018-07-09T05:04:31.274Z,781.88
2018-07-09T05:05:31.285Z,703.13
2018-07-09T05:06:31.237Z,720.00
2018-07-09T05:07:31.169Z,810.00
2018-07-09T05:08:31.192Z,877.50
2018-07-09T05:09:31.119Z,911.25
2018-07-09T05:10:31.088Z,877.50
2018-07-09T05:11:31.047Z,826.88
2018-07-09T05:12:31.021Z,838.13
2018-07-09T05:13:31.039Z,843.75
2018-07-09T05:14:30.958Z,905.63
2018-07-09T05:15:30.924Z,1091.25
2018-07-09T05:16:30.922Z,1293.75
2018-07-09T05:17:30.866Z,1400.63
2018-07-09T05:18:30.847Z,1485.00
2018-07-09T05:19:30.811Z,1350.00
2018-07-09T05:20:30.791Z,1501.88
2018-07-09T05:21:30.740Z,1513.13
2018-07-09T05:22:30.705Z,1608.75
2018-07-09T05:23:30.711Z,1558.13
2018-07-09T05:24:30.686Z,1462.50
2018-07-09T05:25:30.623Z,1608.75
2018-07-09T05:26:30.593Z,1816.88
2018-07-09T05:27:30.588Z,1867.50
2018-07-09T05:28:30.542Z,1833.75
2018-07-09T05:29:30.501Z,1895.63
2018-07-09T05:30:30.484Z,1850.63
2018-07-09T05:31:30.451Z,1985.63
2018-07-09T05:32:30.417Z,2053.13
2018-07-09T05:33:30.390Z,1912.50
2018-07-09T05:34:30.355Z,1867.50
2018-07-09T05:35:30.333Z,1822.50
2018-07-09T05:36:30.327Z,1760.63
2018-07-09T05:37:30.297Z,1811.25
2018-07-09T05:38:30.310Z,1957.50
2018-07-09T05:39:30.270Z,2064.38
2018-07-09T05:40:30.222Z,1794.38
2018-07-09T05:41:30.169Z,1310.63
2018-07-09T05:42:30.243Z,1170.00
2018-07-09T05:43:30.112Z,939.38
2018-07-09T05:44:30.091Z,883.13
2018-07-09T05:45:30.072Z,922.50
2018-07-09T05:46:30.058Z,877.50
2018-07-09T05:47:30.058Z,1012.50
2018-07-09T05:48:30.033Z,1068.75
2018-07-09T05:49:30.036Z,995.63
2018-07-09T05:50:29.929Z,933.75
2018-07-09T05:51:29.933Z,905.63
2018-07-09T05:52:29.896Z,877.50
2018-07-09T05:53:29.889Z,832.50
2018-07-09T05:54:29.842Z,849.38
2018-07-09T05:55:29.811Z,832.50
2018-07-09T05:56:29.782Z,832.50
2018-07-09T05:57:29.748Z,832.50
2018-07-09T05:58:29.730Z,849.38
2018-07-09T05:59:29.707Z,916.88
2018-07-09T06:00:29.665Z,939.38
2018-07-09T06:01:29.636Z,939.38
2018-07-09T06:02:29.613Z,916.88
2018-07-09T06:03:29.586Z,939.38
2018-07-09T06:04:29.557Z,928.13
2018-07-09T06:05:29.528Z,911.25
2018-07-09T06:06:29.502Z,922.50
2018-07-09T06:07:29.457Z,922.50
2018-07-09T06:08:29.453Z,911.25
2018-07-09T06:09:29.411Z,933.75
2018-07-09T06:10:29.396Z,894.38
2018-07-09T06:11:29.428Z,956.25
2018-07-09T06:12:29.322Z,961.88
2018-07-09T06:13:29.313Z,900.00
2018-07-09T06:14:29.272Z,1001.25
2018-07-09T06:15:29.234Z,1006.88
2018-07-09T06:16:29.208Z,933.75
2018-07-09T06:17:29.219Z,888.75
2018-07-09T06:18:29.213Z,894.38
2018-07-09T06:19:29.243Z,1063.13
2018-07-09T06:20:29.135Z,1091.25
2018-07-09T06:21:29.065Z,1147.50
2018-07-09T06:22:29.063Z,1102.50
2018-07-09T06:23:29.023Z,1192.50
2018-07-09T06:24:28.994Z,1068.75
2018-07-09T06:25:29.022Z,1006.88
2018-07-09T06:26:28.918Z,950.63
2018-07-09T06:27:28.921Z,916.88
2018-07-09T06:28:28.860Z,911.25
2018-07-09T06:29:28.820Z,945.00
2018-07-09T06:30:28.795Z,984.38
2018-07-09T06:31:28.831Z,1023.75
2018-07-09T06:32:28.737Z,1057.50
2018-07-09T06:33:28.696Z,1096.88
2018-07-09T06:34:28.673Z,1141.88
2018-07-09T06:35:28.649Z,1164.38
2018-07-09T06:36:28.654Z,1170.00
2018-07-09T06:37:28.585Z,1175.63
2018-07-09T06:38:28.563Z,1175.63
2018-07-09T06:39:28.531Z,1192.50
2018-07-09T06:40:28.535Z,1175.63
2018-07-09T06:41:28.487Z,1209.38
2018-07-09T06:42:28.442Z,1170.00
2018-07-09T06:43:28.422Z,1153.13
2018-07-09T06:44:28.433Z,1102.50
2018-07-09T06:45:28.403Z,1057.50
2018-07-09T06:46:28.331Z,1006.88
2018-07-09T06:47:28.286Z,945.00
2018-07-09T06:48:28.255Z,978.75
2018-07-09T06:49:28.231Z,1023.75
2018-07-09T06:50:28.261Z,1046.25
2018-07-09T06:51:28.176Z,1063.13
2018-07-09T06:52:28.144Z,1040.63
2018-07-09T06:53:28.142Z,1018.13
2018-07-09T06:54:28.089Z,995.63
2018-07-09T06:55:28.058Z,995.63
2018-07-09T06:56:28.026Z,1006.88
2018-07-09T06:57:28.031Z,1057.50
2018-07-09T06:58:27.964Z,1344.38
2018-07-09T06:59:27.943Z,1648.13
2018-07-09T07:00:27.898Z,2334.38
2018-07-09T07:01:27.866Z,2739.38
2018-07-09T07:02:27.903Z,2790.00
2018-07-09T07:03:27.860Z,2666.25
2018-07-09T07:04:27.835Z,2840.63
2018-07-09T07:05:27.780Z,2998.13
2018-07-09T07:06:27.835Z,3189.38
2018-07-09T07:07:27.703Z,3031.88
2018-07-09T07:08:27.678Z,2621.25
2018-07-09T07:09:27.702Z,2362.50
2018-07-09T07:10:27.633Z,2610.00
2018-07-09T07:11:27.633Z,2711.25
2018-07-09T07:12:27.566Z,2896.88
2018-07-09T07:13:27.542Z,3054.38
2018-07-09T07:14:27.570Z,3515.63
2018-07-09T07:15:27.552Z,3751.88
2018-07-09T07:16:27.507Z,3723.75
2018-07-09T07:17:27.504Z,3678.75
2018-07-09T07:18:27.444Z,3268.13
2018-07-09T07:19:27.413Z,3301.88
2018-07-09T07:20:27.382Z,3380.63
2018-07-09T07:21:27.393Z,3493.13
2018-07-09T07:22:27.394Z,3948.75
2018-07-09T07:23:27.388Z,3886.88
2018-07-09T07:24:27.264Z,3639.38
2018-07-09T07:25:27.243Z,3583.13
2018-07-09T07:26:27.248Z,3391.88
2018-07-09T07:27:27.200Z,3431.25
2018-07-09T07:28:27.180Z,3211.88
2018-07-09T07:29:27.192Z,3110.63
2018-07-09T07:30:27.141Z,3341.25
2018-07-09T07:31:27.119Z,2739.38
2018-07-09T07:32:27.080Z,3341.25
2018-07-09T07:33:27.066Z,3307.50
2018-07-09T07:34:27.039Z,3549.38
2018-07-09T07:35:27.012Z,3678.75
2018-07-09T07:36:26.996Z,3375.00
2018-07-09T07:37:26.984Z,3150.00
2018-07-09T07:38:26.974Z,3133.13
2018-07-09T07:39:26.956Z,2295.00
2018-07-09T07:40:26.912Z,2705.63
2018-07-09T07:41:26.890Z,2520.00
2018-07-09T07:42:26.872Z,2655.00
2018-07-09T07:43:26.849Z,3414.38
2018-07-09T07:44:26.818Z,2413.13
2018-07-09T07:45:26.798Z,2683.13
2018-07-09T07:46:26.783Z,3234.38
2018-07-09T07:47:26.766Z,3515.63
2018-07-09T07:48:26.742Z,3470.63
2018-07-09T07:49:26.730Z,2778.75
2018-07-09T07:50:26.896Z,2480.63
2018-07-09T07:51:26.680Z,2041.88
2018-07-09T07:52:26.659Z,1996.88
2018-07-09T07:53:26.655Z,2115.00
2018-07-09T07:54:26.644Z,2368.13
2018-07-09T07:55:26.603Z,2036.25
2018-07-09T07:56:26.578Z,2013.75
2018-07-09T07:57:26.557Z,2396.25
2018-07-09T07:58:26.516Z,2385.00
2018-07-09T07:59:26.535Z,2244.38
2018-07-09T08:00:26.485Z,2278.13
2018-07-09T08:01:26.489Z,2340.00
2018-07-09T08:02:26.433Z,2947.50
2018-07-09T08:03:26.417Z,3532.50
2018-07-09T08:04:26.390Z,3960.00
2018-07-09T08:05:26.378Z,3915.00
2018-07-09T08:06:26.359Z,3808.13
2018-07-09T08:07:26.329Z,3875.63
2018-07-09T08:08:26.312Z,3526.88
2018-07-09T08:09:26.361Z,3341.25
2018-07-09T08:10:26.267Z,3268.13
2018-07-09T08:11:47.730Z,3116.25
2018-07-09T08:13:28.502Z,3150.00
2018-07-09T08:14:26.179Z,3346.88
2018-07-09T08:15:26.150Z,3498.75
2018-07-09T08:16:26.249Z,3886.88
2018-07-09T08:17:26.119Z,4207.50
2018-07-09T08:18:26.096Z,4078.13
2018-07-09T08:19:26.075Z,3802.50
2018-07-09T08:20:26.044Z,3442.50
2018-07-09T08:21:26.049Z,3493.13
2018-07-09T08:22:26.060Z,4702.50
2018-07-09T08:23:25.972Z,3706.88
2018-07-09T08:24:25.992Z,3296.25
2018-07-09T08:25:26.109Z,3054.38
2018-07-09T08:26:25.923Z,2306.25
2018-07-09T08:27:25.891Z,1816.88
2018-07-09T08:28:25.867Z,1873.13
2018-07-09T08:29:25.849Z,1884.38
2018-07-09T08:30:25.845Z,1721.25
2018-07-09T08:31:25.945Z,1957.50
2018-07-09T08:32:25.771Z,2295.00
2018-07-09T08:33:25.777Z,2098.13
2018-07-09T08:34:25.736Z,2745.00
2018-07-09T08:35:25.746Z,2880.00
2018-07-09T08:36:25.757Z,2998.13
2018-07-09T08:37:25.680Z,2913.75
2018-07-09T08:38:25.650Z,3071.25
2018-07-09T08:39:25.630Z,3127.50
2018-07-09T08:40:25.594Z,3195.00
2018-07-09T08:41:25.584Z,3060.00
2018-07-09T08:42:25.580Z,3363.75
2018-07-09T08:43:25.535Z,4466.25
2018-07-09T08:44:25.523Z,4370.63
2018-07-09T08:45:25.512Z,4162.50
2018-07-09T08:46:25.482Z,3864.38
2018-07-09T08:47:25.504Z,3836.25
2018-07-09T08:48:25.451Z,4021.88
2018-07-09T08:49:25.402Z,4674.38
2018-07-09T08:50:25.403Z,4286.25
2018-07-09T08:51:25.355Z,3751.88
2018-07-09T08:52:25.335Z,3864.38
2018-07-09T08:53:25.403Z,5388.75
2018-07-09T08:54:25.304Z,5130.00
2018-07-09T08:55:25.325Z,5006.25
2018-07-09T08:56:25.297Z,5085.00
2018-07-09T08:57:25.217Z,5124.38
2018-07-09T08:58:25.217Z,5287.50
2018-07-09T08:59:25.206Z,5231.25
2018-07-09T09:00:25.158Z,4674.38
2018-07-09T09:01:25.125Z,4584.38
2018-07-09T09:02:25.110Z,4978.13
2018-07-09T09:03:25.105Z,5135.63
2018-07-09T09:04:25.088Z,4218.75
2018-07-09T09:05:25.054Z,4882.50
2018-07-09T09:06:25.042Z,5585.63
2018-07-09T09:07:25.012Z,5090.63
2018-07-09T09:08:24.981Z,5259.38
2018-07-09T09:09:24.951Z,5045.63
2018-07-09T09:10:25.035Z,4303.13
2018-07-09T09:11:24.931Z,4381.88
2018-07-09T09:12:24.906Z,4899.38
2018-07-09T09:13:24.869Z,4809.38
2018-07-09T09:14:24.873Z,5068.13
2018-07-09T09:15:24.846Z,5428.13
2018-07-09T09:16:24.865Z,5366.25
2018-07-09T09:17:24.795Z,6063.75
2018-07-09T09:18:24.782Z,6052.50
2018-07-09T09:19:25.005Z,4415.63
2018-07-09T09:20:24.738Z,4933.13
2018-07-09T09:21:24.710Z,5855.63
2018-07-09T09:22:24.697Z,6648.75
2018-07-09T09:23:24.670Z,7093.13
2018-07-09T09:24:24.644Z,6013.13
2018-07-09T09:25:24.675Z,5281.88
2018-07-09T09:26:24.652Z,2632.50
2018-07-09T09:27:24.612Z,3965.63
2018-07-09T09:28:24.587Z,4050.00
2018-07-09T09:29:24.580Z,2221.88
2018-07-09T09:30:24.545Z,4578.75
2018-07-09T09:31:24.559Z,4966.88
2018-07-09T09:32:24.504Z,5518.13
2018-07-09T09:33:24.470Z,4230.00
2018-07-09T09:34:24.469Z,2407.50
2018-07-09T09:35:24.460Z,2430.00
2018-07-09T09:36:24.421Z,2643.75
2018-07-09T09:37:24.422Z,2255.63
2018-07-09T09:38:24.379Z,3470.63
2018-07-09T09:39:24.349Z,4342.50
2018-07-09T09:40:24.343Z,1991.25
2018-07-09T09:41:24.312Z,5248.13
2018-07-09T09:42:24.306Z,4111.88
2018-07-09T09:43:24.290Z,2446.88
2018-07-09T09:44:24.264Z,4162.50
2018-07-09T09:45:24.242Z,4370.63
2018-07-09T09:46:24.217Z,5315.63
2018-07-09T09:47:24.216Z,5236.88
2018-07-09T09:48:24.190Z,5506.88
2018-07-09T09:49:24.232Z,5647.50
2018-07-09T09:50:24.129Z,4651.88
2018-07-09T09:51:24.165Z,3830.63
2018-07-09T09:52:24.095Z,4196.25
2018-07-09T09:53:24.102Z,4916.25
2018-07-09T09:54:24.060Z,4798.13
2018-07-09T09:55:24.046Z,2227.50
2018-07-09T09:56:24.021Z,4275.00
2018-07-09T09:57:24.003Z,4145.63
2018-07-09T09:58:23.979Z,3493.13
2018-07-09T09:59:23.971Z,1130.63
2018-07-09T10:00:23.921Z,1271.25
2018-07-09T10:01:23.927Z,3982.50
2018-07-09T10:02:23.880Z,3600.00
2018-07-09T10:03:23.863Z,3864.38
2018-07-09T10:04:23.844Z,3701.25
2018-07-09T10:05:23.832Z,3616.88
2018-07-09T10:06:23.859Z,3386.25
2018-07-09T10:07:23.835Z,3363.75
2018-07-09T10:08:23.769Z,3003.75
2018-07-09T10:09:23.739Z,2992.50
2018-07-09T10:10:23.738Z,3465.00
2018-07-09T10:11:23.701Z,3768.75
2018-07-09T10:12:23.666Z,3639.38
2018-07-09T10:13:23.659Z,3712.50
2018-07-09T10:14:23.636Z,4533.75
2018-07-09T10:15:23.610Z,4938.75
2018-07-09T10:16:23.667Z,4533.75
2018-07-09T10:17:23.570Z,4567.50
2018-07-09T10:18:23.555Z,4955.63
2018-07-09T10:19:23.525Z,5968.13
2018-07-09T10:20:23.504Z,6496.88
2018-07-09T10:21:23.505Z,6046.88
2018-07-09T10:22:23.457Z,5400.00
2018-07-09T10:23:23.634Z,5506.88
2018-07-09T10:24:23.409Z,5343.75
2018-07-09T10:25:23.382Z,5040.00
2018-07-09T10:26:23.378Z,5000.63
2018-07-09T10:27:23.342Z,4601.25
2018-07-09T10:28:23.321Z,4702.50
2018-07-09T10:29:23.291Z,4663.13
2018-07-09T10:30:23.285Z,5191.88
2018-07-09T10:31:23.238Z,5821.88
2018-07-09T10:32:23.219Z,5990.63
2018-07-09T10:33:23.216Z,5979.38
2018-07-09T10:34:23.185Z,5495.63
2018-07-09T10:35:23.150Z,5973.75
2018-07-09T10:36:23.178Z,5844.38
2018-07-09T10:37:23.124Z,4590.00
2018-07-09T10:38:23.087Z,5270.63
2018-07-09T10:39:23.073Z,5473.13
2018-07-09T10:40:23.033Z,5636.25
2018-07-09T10:41:23.020Z,5349.38
2018-07-09T10:42:23.016Z,1485.00
2018-07-09T10:43:23.001Z,1282.50
2018-07-09T10:44:22.952Z,1288.13
2018-07-09T10:45:22.946Z,1293.75
2018-07-09T10:46:22.932Z,1417.50
2018-07-09T10:47:22.886Z,1715.63
2018-07-09T10:48:22.865Z,5585.63
2018-07-09T10:49:22.875Z,5911.88
2018-07-09T10:50:22.830Z,6120.00
2018-07-09T10:51:22.813Z,6210.00
2018-07-09T10:52:22.812Z,6069.38
2018-07-09T10:53:22.759Z,5653.13
2018-07-09T10:54:22.740Z,5821.88
2018-07-09T10:55:22.794Z,5737.50
2018-07-09T10:56:22.691Z,5979.38
2018-07-09T10:57:22.688Z,5551.88
2018-07-09T10:58:22.645Z,5760.00
2018-07-09T10:59:22.630Z,5551.88
2018-07-09T11:00:22.599Z,4725.00
2018-07-09T11:01:22.590Z,5287.50
2018-07-09T11:02:22.563Z,5619.38
2018-07-09T11:03:22.546Z,4522.50
2018-07-09T11:04:22.520Z,4702.50
2018-07-09T11:05:22.494Z,5056.88
2018-07-09T11:06:22.478Z,5085.00
2018-07-09T11:07:22.459Z,4635.00
2018-07-09T11:08:22.436Z,5422.50
2018-07-09T11:09:22.412Z,5917.50
2018-07-09T11:10:22.391Z,5416.88
2018-07-09T11:11:22.363Z,6311.25
2018-07-09T11:12:22.340Z,6288.75
2018-07-09T11:13:22.316Z,4910.63
2018-07-09T11:14:22.287Z,5113.13
2018-07-09T11:15:22.340Z,5456.25
2018-07-09T11:16:22.346Z,5248.13
2018-07-09T11:17:22.251Z,4455.00
2018-07-09T11:18:22.202Z,5490.00
2018-07-09T11:19:22.182Z,4646.25
2018-07-09T11:20:22.156Z,5895.00
2018-07-09T11:21:22.162Z,5793.75
2018-07-09T11:22:22.120Z,4320.00
2018-07-09T11:23:22.145Z,4764.38
2018-07-09T11:24:22.079Z,4741.88
2018-07-09T11:25:22.069Z,5726.25
2018-07-09T11:26:22.040Z,5968.13
2018-07-09T11:27:22.021Z,5546.25
2018-07-09T11:28:22.101Z,5343.75
2018-07-09T11:29:22.025Z,4680.00
2018-07-09T11:30:21.968Z,4331.25
2018-07-09T11:31:21.906Z,4415.63
2018-07-09T11:32:21.919Z,5062.50
2018-07-09T11:33:21.866Z,5000.63
2018-07-09T11:34:21.892Z,5405.63
2018-07-09T11:35:21.825Z,5827.50
2018-07-09T11:36:21.872Z,5293.13
2018-07-09T11:37:21.778Z,5023.13
2018-07-09T11:38:21.757Z,5512.50
2018-07-09T11:39:21.729Z,5270.63
2018-07-09T11:40:21.743Z,5186.25
2018-07-09T11:41:21.704Z,4314.38
2018-07-09T11:42:21.680Z,4651.88
2018-07-09T11:43:21.669Z,5175.00
2018-07-09T11:44:21.638Z,5996.25
2018-07-09T11:45:21.640Z,5934.38
2018-07-09T11:46:21.604Z,5000.63
2018-07-09T11:47:21.592Z,4826.25
2018-07-09T11:48:21.532Z,4938.75
2018-07-09T11:49:21.528Z,5281.88
2018-07-09T11:50:21.505Z,5383.13
2018-07-09T11:51:21.461Z,5276.25
2018-07-09T11:52:21.448Z,5152.50
2018-07-09T11:53:21.463Z,4803.75
2018-07-09T11:54:21.425Z,5011.88
2018-07-09T11:55:21.389Z,5141.25
2018-07-09T11:56:21.430Z,5529.38
2018-07-09T11:57:21.339Z,5900.63
2018-07-09T11:58:21.306Z,6086.25
2018-07-09T11:59:21.290Z,5394.38
2018-07-09T12:00:21.276Z,4809.38
2018-07-09T12:01:21.242Z,5079.38
2018-07-09T12:02:21.224Z,5743.13
2018-07-09T12:03:21.208Z,5928.75
2018-07-09T12:04:21.179Z,5191.88
2018-07-09T12:05:21.162Z,5079.38
2018-07-09T12:06:21.134Z,4893.75
2018-07-09T12:07:21.117Z,4235.63
2018-07-09T12:08:21.093Z,4837.50
2018-07-09T12:09:21.066Z,4561.88
2018-07-09T12:10:21.054Z,4792.50
2018-07-09T12:11:21.103Z,5197.50
2018-07-09T12:12:21.019Z,5343.75
2018-07-09T12:13:20.991Z,5130.00
2018-07-09T12:14:20.983Z,5450.63
2018-07-09T12:15:20.948Z,5602.50
2018-07-09T12:16:20.933Z,5203.13
2018-07-09T12:17:20.903Z,5799.38
2018-07-09T12:18:20.893Z,6058.13
2018-07-09T12:19:20.849Z,5743.13
2018-07-09T12:20:20.823Z,4786.88
2018-07-09T12:21:20.837Z,5242.50
2018-07-09T12:22:20.811Z,6390.00
2018-07-09T12:23:20.756Z,5484.38
2018-07-09T12:24:20.744Z,5079.38
2018-07-09T12:25:20.744Z,5304.38
2018-07-09T12:26:20.790Z,5265.00
2018-07-09T12:27:20.674Z,4865.63
2018-07-09T12:28:20.661Z,4803.75
2018-07-09T12:29:20.624Z,4753.13